createdAt,value
2018-05-13T00:00:50.852Z,5.80
2018-05-13T00:03:24.459Z,5.13
2018-05-13T00:05:54.215Z,5.47
2018-05-13T00:08:23.674Z,5.27
2018-05-13T00:10:54.064Z,4.83
2018-05-13T00:13:24.524Z,4.90
2018-05-13T00:15:54.532Z,5.80
2018-05-13T00:18:25.683Z,5.27
2018-05-13T00:20:55.677Z,5.43
2018-05-13T00:23:25.412Z,5.03
2018-05-13T00:25:55.920Z,5.43
2018-05-13T00:28:28.159Z,5.70
2018-05-13T00:31:01.408Z,5.00
2018-05-13T00:33:31.775Z,6.03
2018-05-13T00:36:02.069Z,5.10
2018-05-13T00:38:32.060Z,4.97
2018-05-13T00:41:01.699Z,5.00
2018-05-13T00:43:31.903Z,5.73
2018-05-13T00:46:02.183Z,5.37
2018-05-13T00:48:33.223Z,5.37
2018-05-13T00:51:03.816Z,5.63
2018-05-13T00:53:35.391Z,5.57
2018-05-13T00:56:05.487Z,5.77
2018-05-13T00:58:37.444Z,6.10
2018-05-13T01:01:07.471Z,6.40
2018-05-13T01:03:40.190Z,5.57
2018-05-13T01:06:11.084Z,6.20
2018-05-13T01:08:42.088Z,5.83
2018-05-13T01:11:13.220Z,5.40
2018-05-13T01:13:42.794Z,6.03
2018-05-13T01:16:12.918Z,5.67
2018-05-13T01:18:43.352Z,5.87
2018-05-13T01:21:14.195Z,6.20
2018-05-13T01:23:43.795Z,5.80
2018-05-13T01:26:13.755Z,5.93
2018-05-13T01:28:44.475Z,5.73
2018-05-13T01:31:15.358Z,5.37
2018-05-13T01:33:44.905Z,6.20
2018-05-13T01:36:14.968Z,5.90
2018-05-13T01:38:45.505Z,5.60
2018-05-13T01:41:17.312Z,6.17
2018-05-13T01:43:48.891Z,5.90
2018-05-13T01:46:19.932Z,5.50
2018-05-13T01:48:50.657Z,5.67
2018-05-13T01:51:23.536Z,6.40
2018-05-13T01:53:54.895Z,6.37
2018-05-13T01:56:26.676Z,6.07
2018-05-13T01:58:56.408Z,6.70
2018-05-13T02:01:26.457Z,6.83
2018-05-13T02:03:55.895Z,5.93
2018-05-13T02:06:26.366Z,6.30
2018-05-13T02:08:56.039Z,7.27
2018-05-13T02:11:26.965Z,6.60
2018-05-13T02:13:56.761Z,6.23
2018-05-13T02:16:26.867Z,5.90
2018-05-13T02:18:57.078Z,6.77
2018-05-13T02:21:28.008Z,6.20
2018-05-13T02:23:57.552Z,6.60
2018-05-13T02:26:27.668Z,6.97
2018-05-13T02:29:01.019Z,6.40
2018-05-13T02:31:32.308Z,6.67
2018-05-13T02:34:02.551Z,7.23
2018-05-13T02:36:32.131Z,6.80
2018-05-13T02:39:01.897Z,7.03
2018-05-13T02:41:34.115Z,7.00
2018-05-13T02:44:08.053Z,7.77
2018-05-13T02:46:39.575Z,7.10
2018-05-13T02:49:09.480Z,6.77
2018-05-13T02:51:39.799Z,7.33
2018-05-13T02:54:09.440Z,6.77
2018-05-13T02:56:39.952Z,6.77
2018-05-13T02:59:14.526Z,7.00
2018-05-13T03:01:44.220Z,6.90
2018-05-13T03:04:14.069Z,6.93
2018-05-13T03:06:44.072Z,6.83
2018-05-13T03:09:14.063Z,6.60
2018-05-13T03:11:46.638Z,6.23
2018-05-13T03:14:16.531Z,7.10
2018-05-13T03:16:49.559Z,6.90
2018-05-13T03:19:20.051Z,7.57
2018-05-13T03:21:49.878Z,7.17
2018-05-13T03:24:19.689Z,6.97
2018-05-13T03:26:50.628Z,7.00
2018-05-13T03:29:23.952Z,7.87
2018-05-13T03:31:54.777Z,6.83
2018-05-13T03:34:25.606Z,6.77
2018-05-13T03:36:55.420Z,7.10
2018-05-13T03:39:25.572Z,6.57
2018-05-13T03:41:56.516Z,6.33
2018-05-13T03:44:26.056Z,7.33
2018-05-13T03:46:55.547Z,6.60
2018-05-13T03:49:26.279Z,6.70
2018-05-13T03:51:55.973Z,7.17
2018-05-13T03:54:26.413Z,6.77
2018-05-13T03:56:57.351Z,6.87
2018-05-13T03:59:29.024Z,6.77
2018-05-13T04:01:59.511Z,6.90
2018-05-13T04:04:29.358Z,6.33
2018-05-13T04:06:59.687Z,6.67
2018-05-13T04:09:35.522Z,6.80
2018-05-13T04:12:12.168Z,6.30
2018-05-13T04:14:48.140Z,5.37
2018-05-13T04:17:18.677Z,6.27
2018-05-13T04:19:49.360Z,6.00
2018-05-13T04:22:18.921Z,6.30
2018-05-13T04:24:49.142Z,6.00
2018-05-13T04:27:19.542Z,5.27
2018-05-13T04:32:24.892Z,5.73
2018-05-13T04:34:59.291Z,6.10
2018-05-13T04:37:30.222Z,5.07
2018-05-13T04:39:59.707Z,5.80
2018-05-13T04:42:30.373Z,5.50
2018-05-13T04:45:00.893Z,5.53
2018-05-13T04:47:31.612Z,4.53
2018-05-13T04:50:01.438Z,5.10
2018-05-13T04:52:31.057Z,4.90
2018-05-13T04:55:00.478Z,5.20
2018-05-13T04:57:30.116Z,5.10
2018-05-13T05:00:00.698Z,5.33
2018-05-13T05:02:32.612Z,5.17
2018-05-13T05:05:02.120Z,4.63
2018-05-13T05:07:34.162Z,4.57
2018-05-13T05:10:04.314Z,5.03
2018-05-13T05:12:36.336Z,4.80
2018-05-13T05:15:07.573Z,4.37
2018-05-13T05:17:37.337Z,4.77
2018-05-13T05:20:07.029Z,5.07
2018-05-13T05:22:39.164Z,4.60
2018-05-13T05:25:11.669Z,4.57
2018-05-13T05:27:41.895Z,4.50
2018-05-13T05:30:11.406Z,4.93
2018-05-13T05:32:41.730Z,4.50
2018-05-13T05:35:12.772Z,4.10
2018-05-13T05:37:43.306Z,4.40
2018-05-13T05:40:14.453Z,4.37
2018-05-13T05:42:44.048Z,4.70
2018-05-13T05:45:15.342Z,4.13
2018-05-13T05:47:45.468Z,4.40
2018-05-13T05:50:16.980Z,4.47
2018-05-13T05:52:47.046Z,4.30
2018-05-13T05:55:18.268Z,4.13
2018-05-13T05:57:49.103Z,3.80
2018-05-13T06:00:19.223Z,3.37
2018-05-13T06:02:48.424Z,4.27
2018-05-13T06:05:18.328Z,5.00
2018-05-13T06:07:48.373Z,3.67
2018-05-13T06:10:17.882Z,4.07
2018-05-13T06:12:47.368Z,3.60
2018-05-13T06:15:17.345Z,3.87
2018-05-13T06:17:46.888Z,3.77
2018-05-13T06:20:20.673Z,4.13
2018-05-13T06:22:52.071Z,4.30
2018-05-13T06:25:23.395Z,4.30
2018-05-13T06:27:54.489Z,3.63
2018-05-13T06:30:25.579Z,3.90
2018-05-13T06:32:56.598Z,3.50
2018-05-13T06:35:28.253Z,4.17
2018-05-13T06:37:57.728Z,4.00
2018-05-13T06:40:27.220Z,3.30
2018-05-13T06:42:56.711Z,3.97
2018-05-13T06:45:25.911Z,3.63
2018-05-13T06:47:56.150Z,3.73
2018-05-13T06:50:25.781Z,3.93
2018-05-13T06:52:55.567Z,3.27
2018-05-13T06:55:25.179Z,4.00
2018-05-13T06:57:55.608Z,3.47
2018-05-13T07:00:25.147Z,3.70
2018-05-13T07:02:54.795Z,3.17
2018-05-13T07:05:23.960Z,3.63
2018-05-13T07:07:53.439Z,3.57
2018-05-13T07:10:24.240Z,3.70
2018-05-13T07:12:54.635Z,3.67
2018-05-13T07:15:24.861Z,3.60
2018-05-13T07:17:54.447Z,3.40
2018-05-13T07:20:24.517Z,3.20
2018-05-13T07:22:55.025Z,3.23
2018-05-13T07:25:24.651Z,3.00
2018-05-13T07:27:55.095Z,3.30
2018-05-13T07:30:24.556Z,3.07
2018-05-13T07:32:54.059Z,3.03
2018-05-13T07:35:24.696Z,3.20
2018-05-13T07:37:54.741Z,2.87
2018-05-13T07:40:24.261Z,3.10
2018-05-13T07:42:53.477Z,3.10
2018-05-13T07:45:23.617Z,3.30
2018-05-13T07:47:53.268Z,3.20
2018-05-13T07:50:26.291Z,2.90
2018-05-13T07:52:56.679Z,2.97
2018-05-13T07:55:26.187Z,3.30
2018-05-13T07:57:56.161Z,3.43
2018-05-13T08:00:25.338Z,3.33
2018-05-13T08:02:55.441Z,2.80
2018-05-13T08:05:25.893Z,3.27
2018-05-13T08:10:51.418Z,2.40
2018-05-13T08:13:29.183Z,3.00
2018-05-13T08:15:58.724Z,3.23
2018-05-13T08:18:29.387Z,3.17
2018-05-13T08:21:00.096Z,3.33
2018-05-13T08:23:30.219Z,2.90
2018-05-13T08:25:59.864Z,3.07
2018-05-13T08:28:29.655Z,3.10
2018-05-13T08:30:59.174Z,3.13
2018-05-13T08:33:28.847Z,3.07
2018-05-13T08:35:59.176Z,3.80
2018-05-13T08:38:28.682Z,3.20
2018-05-13T08:40:58.187Z,2.90
2018-05-13T08:43:27.385Z,3.20
2018-05-13T08:45:57.435Z,2.90
2018-05-13T08:48:27.629Z,3.10
2018-05-13T08:50:57.248Z,3.47
2018-05-13T08:53:26.999Z,3.13
2018-05-13T08:55:56.672Z,3.50
2018-05-13T08:58:26.207Z,4.23
2018-05-13T09:00:56.847Z,3.30
2018-05-13T09:03:27.143Z,3.03
2018-05-13T09:05:57.256Z,3.30
2018-05-13T09:08:27.676Z,3.20
2018-05-13T09:10:57.106Z,3.03
2018-05-13T09:13:26.747Z,3.43
2018-05-13T09:15:56.351Z,3.10
2018-05-13T09:18:25.951Z,3.13
2018-05-13T09:20:56.147Z,2.73
2018-05-13T09:23:25.946Z,2.77
2018-05-13T09:25:55.951Z,3.10
2018-05-13T09:28:26.464Z,2.70
2018-05-13T09:30:56.799Z,3.13
2018-05-13T09:33:26.272Z,2.73
2018-05-13T09:35:55.884Z,2.63
2018-05-13T09:38:26.130Z,3.40
2018-05-13T09:40:55.640Z,3.13
2018-05-13T09:43:25.968Z,3.17
2018-05-13T09:45:56.010Z,3.00
2018-05-13T09:48:25.780Z,2.90
2018-05-13T09:50:55.291Z,2.97
2018-05-13T09:53:25.000Z,3.03
2018-05-13T09:55:55.128Z,3.43
2018-05-13T09:58:24.323Z,2.87
2018-05-13T10:00:54.298Z,2.70
2018-05-13T10:03:23.783Z,2.83
2018-05-13T10:05:53.264Z,3.20
2018-05-13T10:08:23.564Z,3.10
2018-05-13T10:10:53.511Z,3.07
2018-05-13T10:13:23.863Z,2.93
2018-05-13T10:15:53.476Z,3.17
2018-05-13T10:18:23.575Z,3.03
2018-05-13T10:20:53.723Z,3.10
2018-05-13T10:23:23.202Z,3.40
2018-05-13T10:25:53.527Z,2.93
2018-05-13T10:28:23.139Z,2.70
2018-05-13T10:30:54.113Z,3.83
2018-05-13T10:33:24.135Z,2.83
2018-05-13T10:35:53.440Z,3.53
2018-05-13T10:38:24.304Z,2.70
2018-05-13T10:40:54.316Z,2.97
2018-05-13T10:43:23.748Z,2.97
2018-05-13T10:45:53.019Z,2.90
2018-05-13T10:48:23.026Z,3.10
2018-05-13T10:50:52.741Z,2.53
2018-05-13T10:53:23.063Z,2.58
2018-05-13T10:55:52.771Z,2.87
2018-05-13T10:58:22.908Z,3.35
2018-05-13T11:00:52.487Z,2.85
2018-05-13T11:03:23.064Z,3.25
2018-05-13T11:05:52.532Z,3.05
2018-05-13T11:08:21.903Z,3.05
2018-05-13T11:10:51.598Z,3.40
2018-05-13T11:13:21.199Z,3.08
2018-05-13T11:15:50.668Z,3.22
2018-05-13T11:18:19.970Z,3.00
2018-05-13T11:20:50.402Z,2.95
2018-05-13T11:23:19.612Z,2.92
2018-05-13T11:25:49.141Z,2.90
2018-05-13T11:28:18.354Z,2.67
2018-05-13T11:30:47.910Z,2.80
2018-05-13T11:33:17.543Z,3.15
2018-05-13T11:35:47.843Z,2.85
2018-05-13T11:38:17.463Z,3.10
2018-05-13T11:40:46.661Z,3.15
2018-05-13T11:43:16.200Z,2.83
2018-05-13T11:45:45.628Z,2.78
2018-05-13T11:48:15.111Z,3.17
2018-05-13T11:50:44.336Z,2.90
2018-05-13T11:53:13.927Z,3.20
2018-05-13T11:55:43.123Z,3.08
2018-05-13T11:58:12.734Z,2.55
2018-05-13T12:00:41.946Z,3.28
2018-05-13T12:03:12.080Z,2.80
2018-05-13T12:05:41.596Z,3.00
2018-05-13T12:08:11.105Z,3.08
2018-05-13T12:10:40.615Z,2.65
2018-05-13T12:13:10.146Z,2.80
2018-05-13T12:15:39.343Z,2.83
2018-05-13T12:18:08.541Z,3.00
2018-05-13T12:20:38.036Z,2.70
2018-05-13T12:23:07.531Z,3.05
2018-05-13T12:25:37.054Z,3.35
2018-05-13T12:28:06.543Z,3.55
2018-05-13T12:30:35.744Z,2.95
2018-05-13T12:33:05.785Z,2.95
2018-05-13T12:35:34.991Z,2.87
2018-05-13T12:38:04.763Z,3.58
2018-05-13T12:40:34.312Z,3.33
2018-05-13T12:43:03.793Z,2.97
2018-05-13T12:45:33.329Z,3.08
2018-05-13T12:48:02.880Z,3.00
2018-05-13T12:50:32.364Z,3.15
2018-05-13T12:53:01.559Z,3.08
2018-05-13T12:55:33.924Z,3.05
2018-05-13T12:58:03.412Z,3.33
2018-05-13T13:00:32.831Z,3.30
2018-05-13T13:03:02.327Z,3.22
2018-05-13T13:05:32.513Z,4.00
2018-05-13T13:08:02.523Z,3.35
2018-05-13T13:10:32.616Z,2.80
2018-05-13T13:13:02.535Z,2.83
2018-05-13T13:15:32.223Z,2.58
2018-05-13T13:18:01.787Z,3.20
2018-05-13T13:20:31.114Z,3.33
2018-05-13T13:23:00.327Z,3.20
2018-05-13T13:25:30.052Z,3.20
2018-05-13T13:27:59.252Z,3.45
2018-05-13T13:30:28.506Z,3.10
2018-05-13T13:32:57.998Z,3.00
2018-05-13T13:35:27.471Z,3.17
2018-05-13T13:37:56.988Z,3.12
2018-05-13T13:43:09.559Z,3.40
2018-05-13T13:45:39.565Z,3.50
2018-05-13T13:48:08.775Z,3.10
2018-05-13T13:50:38.347Z,3.47
2018-05-13T13:53:07.819Z,3.22
2018-05-13T13:55:37.363Z,3.00
2018-05-13T13:58:06.871Z,3.58
2018-05-13T14:00:36.500Z,3.10
2018-05-13T14:03:06.023Z,3.05
2018-05-13T14:05:35.225Z,2.95
2018-05-13T14:08:04.708Z,2.90
2018-05-13T14:10:34.389Z,3.08
2018-05-13T14:13:03.924Z,2.85
2018-05-13T14:15:33.465Z,2.95
2018-05-13T14:18:03.086Z,3.37
2018-05-13T14:20:32.590Z,3.08
2018-05-13T14:23:01.859Z,3.17
2018-05-13T14:25:31.398Z,3.55
2018-05-13T14:28:00.993Z,3.20
2018-05-13T14:30:30.521Z,3.20
2018-05-13T14:32:59.989Z,3.05
2018-05-13T14:35:29.436Z,3.15
2018-05-13T14:37:59.038Z,3.20
2018-05-13T14:40:28.525Z,2.80
2018-05-13T14:42:59.363Z,2.92
2018-05-13T14:45:29.666Z,3.08
2018-05-13T14:47:59.011Z,3.65
2018-05-13T14:50:28.645Z,2.87
2018-05-13T14:52:58.249Z,2.83
2018-05-13T14:55:27.722Z,2.72
2018-05-13T14:57:57.241Z,3.10
2018-05-13T15:00:26.492Z,2.70
2018-05-13T15:02:57.001Z,3.12
2018-05-13T15:05:26.306Z,2.75
2018-05-13T15:07:56.497Z,3.10
2018-05-13T15:10:25.863Z,3.00
2018-05-13T15:12:56.691Z,3.00
2018-05-13T15:15:25.997Z,2.80
2018-05-13T15:17:55.619Z,3.22
2018-05-13T15:20:25.204Z,3.12
2018-05-13T15:22:54.691Z,3.10
2018-05-13T15:25:23.895Z,3.25
2018-05-13T15:27:53.452Z,2.92
2018-05-13T15:30:23.456Z,3.10
2018-05-13T15:32:52.956Z,3.10
2018-05-13T15:35:22.600Z,4.18
2018-05-13T15:37:51.988Z,3.35
2018-05-13T15:40:21.712Z,3.30
2018-05-13T15:42:51.312Z,2.90
2018-05-13T15:45:20.813Z,3.40
2018-05-13T15:47:50.606Z,3.10
2018-05-13T15:50:19.867Z,3.28
2018-05-13T15:52:49.329Z,3.35
2018-05-13T15:55:19.522Z,2.95
2018-05-13T15:57:48.777Z,4.05
2018-05-13T16:00:18.309Z,3.25
2018-05-13T16:02:47.879Z,2.97
2018-05-13T16:05:17.991Z,3.60
2018-05-13T16:07:47.499Z,3.30
2018-05-13T16:10:16.995Z,5.57
2018-05-13T16:12:46.501Z,3.20
2018-05-13T16:15:16.011Z,3.65
2018-05-13T16:17:45.551Z,3.70
2018-05-13T16:20:15.058Z,6.07
2018-05-13T16:22:44.504Z,3.30
2018-05-13T16:25:14.048Z,5.28
2018-05-13T16:27:43.656Z,4.40
2018-05-13T16:30:12.889Z,3.83
2018-05-13T16:32:43.114Z,3.37
2018-05-13T16:35:12.700Z,3.60
2018-05-13T16:37:42.215Z,2.92
2018-05-13T16:40:12.223Z,3.58
2018-05-13T16:42:42.355Z,3.67
2018-05-13T16:45:12.165Z,4.37
2018-05-13T16:47:41.588Z,4.12
2018-05-13T16:50:14.135Z,3.60
2018-05-13T16:52:44.376Z,4.12
2018-05-13T16:55:13.865Z,3.78
2018-05-13T16:57:43.399Z,3.28
2018-05-13T17:00:12.923Z,4.28
2018-05-13T17:02:42.131Z,3.17
2018-05-13T17:05:12.291Z,2.92
2018-05-13T17:07:41.568Z,3.37
2018-05-13T17:10:10.775Z,3.47
2018-05-13T17:12:40.275Z,2.67
2018-05-13T17:15:09.807Z,3.05
2018-05-13T17:17:39.011Z,2.87
2018-05-13T17:20:08.240Z,2.85
2018-05-13T17:22:37.875Z,3.08
2018-05-13T17:25:07.407Z,3.40
2018-05-13T17:27:36.624Z,3.42
2018-05-13T17:30:06.095Z,3.10
2018-05-13T17:32:35.615Z,3.15
2018-05-13T17:35:05.423Z,3.05
2018-05-13T17:37:35.001Z,3.10
2018-05-13T17:40:04.399Z,3.15
2018-05-13T17:42:33.876Z,2.72
2018-05-13T17:45:03.387Z,2.80
2018-05-13T17:47:33.831Z,3.72
2018-05-13T17:50:03.119Z,3.12
2018-05-13T17:52:33.144Z,3.20
2018-05-13T17:55:02.820Z,3.00
2018-05-13T18:00:11.489Z,2.90
2018-05-13T18:02:40.919Z,3.40
2018-05-13T18:05:10.480Z,3.35
2018-05-13T18:07:40.093Z,3.22
2018-05-13T18:10:09.288Z,3.47
2018-05-13T18:12:38.827Z,3.70
2018-05-13T18:15:08.744Z,2.83
2018-05-13T18:17:39.641Z,3.05
2018-05-13T18:20:10.423Z,3.53
2018-05-13T18:22:40.003Z,3.00
2018-05-13T18:25:09.547Z,2.78
2018-05-13T18:27:39.000Z,2.80
2018-05-13T18:32:43.608Z,2.85
2018-05-13T18:35:13.091Z,2.93
2018-05-13T18:37:42.548Z,2.95
2018-05-13T18:40:12.056Z,3.08
2018-05-13T18:42:41.535Z,2.70
2018-05-13T18:45:11.012Z,3.00
2018-05-13T18:47:40.627Z,2.80
2018-05-13T18:50:10.399Z,3.20
2018-05-13T18:52:39.856Z,3.57
2018-05-13T18:55:09.365Z,3.20
2018-05-13T18:57:38.561Z,3.20
2018-05-13T19:00:07.989Z,3.10
2018-05-13T19:02:37.335Z,3.23
2018-05-13T19:05:06.559Z,3.30
2018-05-13T19:07:35.979Z,3.77
2018-05-13T19:10:05.620Z,3.10
2018-05-13T19:12:35.141Z,3.07
2018-05-13T19:15:04.819Z,4.10
2018-05-13T19:17:34.350Z,3.40
2018-05-13T19:20:03.835Z,3.30
2018-05-13T19:22:33.276Z,2.97
2018-05-13T19:25:02.843Z,3.77
2018-05-13T19:27:32.389Z,3.50
2018-05-13T19:30:01.940Z,3.20
2018-05-13T19:32:31.356Z,3.40
2018-05-13T19:35:00.915Z,3.27
2018-05-13T19:37:30.395Z,3.80
2018-05-13T19:39:59.933Z,3.90
2018-05-13T19:42:29.129Z,3.57
2018-05-13T19:44:59.131Z,3.30
2018-05-13T19:47:29.459Z,3.30
2018-05-13T19:49:59.063Z,3.40
2018-05-13T19:52:29.091Z,2.50
2018-05-13T19:54:58.356Z,3.90
2018-05-13T19:57:28.311Z,3.27
2018-05-13T19:59:57.819Z,3.60
2018-05-13T20:02:27.328Z,3.87
2018-05-13T20:04:56.817Z,4.10
2018-05-13T20:07:27.273Z,4.00
2018-05-13T20:09:56.956Z,3.60
2018-05-13T20:12:26.517Z,3.50
2018-05-13T20:14:56.951Z,3.90
2018-05-13T20:17:26.431Z,4.00
2018-05-13T20:19:57.705Z,4.50
2018-05-13T20:22:27.216Z,4.47
2018-05-13T20:24:57.376Z,4.47
2018-05-13T20:27:30.320Z,4.00
2018-05-13T20:29:59.815Z,4.03
2018-05-13T20:32:30.148Z,4.93
2018-05-13T20:35:00.308Z,5.83
2018-05-13T20:37:30.509Z,5.33
2018-05-13T20:40:00.100Z,4.83
2018-05-13T20:42:30.215Z,4.83
2018-05-13T20:45:00.149Z,4.97
2018-05-13T20:47:29.409Z,4.30
2018-05-13T20:49:59.603Z,4.67
2018-05-13T20:52:29.219Z,4.70
2018-05-13T20:54:58.418Z,4.20
2018-05-13T20:57:27.749Z,4.60
2018-05-13T20:59:57.302Z,4.67
2018-05-13T21:02:26.807Z,4.37
2018-05-13T21:04:56.256Z,4.50
2018-05-13T21:07:26.328Z,4.10
2018-05-13T21:09:55.600Z,4.57
2018-05-13T21:12:25.195Z,4.40
2018-05-13T21:14:54.695Z,4.07
2018-05-13T21:17:24.168Z,5.20
2018-05-13T21:19:54.445Z,4.40
2018-05-13T21:22:24.728Z,4.27
2018-05-13T21:24:55.148Z,5.03
2018-05-13T21:27:24.684Z,4.47
2018-05-13T21:29:54.159Z,4.83
2018-05-13T21:32:23.351Z,4.87
2018-05-13T21:34:52.989Z,4.53
2018-05-13T21:37:22.513Z,5.10
2018-05-13T21:39:52.000Z,4.93
2018-05-13T21:42:22.397Z,4.90
2018-05-13T21:44:51.965Z,5.13
2018-05-13T21:47:23.128Z,4.67
2018-05-13T21:49:52.325Z,4.80
2018-05-13T21:52:22.229Z,4.73
2018-05-13T21:54:52.224Z,5.00
2018-05-13T21:57:21.735Z,5.10
2018-05-13T21:59:51.243Z,4.50
2018-05-13T22:02:20.847Z,5.27
2018-05-13T22:04:55.345Z,4.60
2018-05-13T22:07:25.348Z,4.60
2018-05-13T22:09:54.913Z,4.27
2018-05-13T22:12:24.431Z,4.23
2018-05-13T22:14:54.532Z,4.13
2018-05-13T22:17:24.122Z,4.40
2018-05-13T22:19:53.684Z,4.57
2018-05-13T22:22:23.177Z,4.70
2018-05-13T22:24:52.395Z,4.47
2018-05-13T22:27:21.876Z,4.37
2018-05-13T22:29:51.383Z,4.47
2018-05-13T22:32:20.924Z,4.70
2018-05-13T22:34:50.376Z,4.60
2018-05-13T22:37:23.565Z,4.67
2018-05-13T22:39:53.108Z,4.43
2018-05-13T22:42:22.645Z,4.00
2018-05-13T22:44:52.343Z,4.27
2018-05-13T22:47:21.988Z,4.80
2018-05-13T22:49:51.831Z,4.20
2018-05-13T22:52:21.159Z,4.47
2018-05-13T22:54:50.707Z,4.10
2018-05-13T22:57:20.210Z,5.00
2018-05-13T22:59:49.636Z,4.60
2018-05-13T23:02:19.032Z,4.80
2018-05-13T23:04:48.534Z,5.13
2018-05-13T23:07:17.964Z,4.80
2018-05-13T23:09:48.141Z,5.23
2018-05-13T23:12:17.648Z,4.57
2018-05-13T23:14:47.184Z,4.33
2018-05-13T23:17:17.824Z,5.13
2018-05-13T23:19:47.254Z,4.43
2018-05-13T23:22:23.666Z,4.83
2018-05-13T23:24:53.280Z,4.97
2018-05-13T23:27:23.426Z,5.40
2018-05-13T23:29:53.019Z,5.13
2018-05-13T23:32:22.635Z,4.50
2018-05-13T23:34:51.827Z,4.67
2018-05-13T23:37:21.298Z,4.67
2018-05-13T23:39:50.557Z,4.47
2018-05-13T23:42:20.402Z,5.17
2018-05-13T23:44:49.857Z,5.17
2018-05-13T23:47:19.093Z,5.33
2018-05-13T23:49:48.599Z,4.70
2018-05-13T23:52:18.023Z,4.90
2018-05-13T23:54:47.484Z,4.50
2018-05-13T23:57:16.678Z,4.80
2018-05-13T23:59:46.137Z,5.00
